Salyersville, KY

5:13 PM EDT on July 23, 2014 (GMT -0400)
Middle Creek VFD Station 2 (KKYPREST3) Elev 689 ft | 37.64 °N, 82.85 °W | Change Station

Current weather conditions updated 5 minutes ago

Clear
Clear
88.3 °F
Feels Like 104 °F
N
0.0
Wind Variable Wind from North

Tomorrow is forecast to be Much Cooler than today. Showers ending by midday.

Today
High -- | Low -- °F
--% Chance of Precip.
Yesterday
High -- | Low -- °F
Precip. -- in
6:28 AM 8:48 PM
Waning Crescent, 8% visible
Pressure 29.94 in
Visibility 8.0 miles
Clouds Clear
Heat Index 104 °F
Dew Point 80 °F
Humidity 75%
Rainfall 0.00 in
Snow Depth Not available.
UV 6 out of 12
Pollen 3.30 out of 12
Air Quality Not available.
Flu Activity Not available.
METAR KJKL 232053Z AUTO VRB04KT 8SM CLR 28/22 A2999 RMK AO2 LTG DSNT NE AND E SLP138 T02780222 56027

More Conditions Fewer Conditions

Pressure 29.94 in
Visibility 8.0 miles
Clouds Clear
Heat Index 104 °F
Dew Point 80 °F
Humidity 75%
Rainfall 0.00 in
Snow Depth Not available.
UV 6 out of 12
Pollen 3.30 out of 12
Air Quality Not available.
Flu Activity Not available.
METAR KJKL 232053Z AUTO VRB04KT 8SM CLR 28/22 A2999 RMK AO2 LTG DSNT NE AND E SLP138 T02780222 56027

More Conditions Fewer Conditions

10-Day Weather Forecast

Almanac

Astronomy

Jul. 23, 2014 Rise Set
Actual Time 6:28 AM EDT 8:48 PM EDT
Civil Twilight 5:58 AM EDT 9:18 PM EDT
Nautical Twilight 5:21 AM EDT 9:55 PM EDT
Astronomical Twilight 4:41 AM EDT 10:35 PM EDT
Moon 3:46 AM EDT 6:16 PM EDT
Length of Visible Light 15h 19m
Length of Day
14h 20m
Tomorrow will be 1m 34s shorter.
Waning Crescent, 8% of the Moon is Illuminated
Today
Waning Crescent
Jul 26
New
Aug 3
First Quarter
Aug 10
Full
Aug 17
Last Quarter

Today's Extremes

State Highs State Lows

Community

WunderPhotos

Upload Photos

1,736,782 photos uploaded!

Nearby

Snow Depth

Station Depth Elevation
No new snow has been reported.

Earthquake Activity

City Distance Mag. Time & Date
No recent earthquake activity has been reported nearby.
Minimum magnitude displayed is 2.5.

Coastal Water Temperatures

Place Temperature
No Stations Reporting

Nearby Weather Stations

Station Location Temp. Heat Index Dew Point Humidity Wind Precip. Elev Updated Type
Middle Creek VFD Station 2, Prestonsburg, KY 88.3 °F 104 °F 80 °F 75% North  at  0.0 mph - / hr 689 ft 5:08 PM EDT Normal
Middle Creek Battlefield Area, Prestonsburg, KY 83.5 °F 90 °F 73 °F 71% North  at  0.0 mph 0.00 in / hr 728 ft 5:12 PM EDT Rapid Fire
Paintsville, KY, Paintsville, KY 81.8 °F 86 °F 72 °F 72% SE  at  3.0 mph 0.00 in / hr 620 ft 5:08 PM EDT Normal

Show More Stations Show Fewer Stations